Date,TemperatureHighF,TemperatureAvgF,TemperatureLowF,DewpointHighF,DewpointAvgF,DewpointLowF,HumidityHigh,HumidityAvg,HumidityLow,PressureMaxIn,PressureMinIn,WindSpeedMaxMPH,WindSpeedAvgMPH,GustSpeedMaxMPH,PrecipitationSumIn
2013-1-3,53,51,48,27,26,23,38,37,37,30.29,30.15,14,2,14,0.16
2013-1-4,56,47,40,40,29,19,68,50,38,30.37,30.27,13,2,13,0.01
2013-1-9,71,66,61,53,41,32,53,41,32,30.41,30.34,8,0,8,0.00
2013-1-10,67,62,57,52,37,30,60,40,32,30.45,30.36,26,4,26,0.03
2013-1-11,75,64,56,58,37,30,56,37,29,30.36,30.20,22,2,22,0.02
2013-1-12,77,66,60,62,41,33,61,40,30,30.24,30.13,12,3,12,0.01
2013-1-13,74,65,59,55,38,33,53,37,30,30.21,30.10,19,2,19,0.02
2013-1-14,75,67,62,57,39,33,54,37,30,30.23,30.13,23,4,23,0.01
2013-1-15,73,67,62,48,38,33,41,34,30,30.18,30.05,21,4,21,0.01
2013-1-16,75,68,65,60,42,35,61,40,31,30.09,29.99,26,8,26,0.00
2013-1-17,73,63,47,59,39,27,61,43,31,30.05,29.77,41,9,41,0.06
2013-1-18,55,48,42,36,30,22,66,51,35,30.50,30.05,32,8,32,0.00
2013-1-19,61,51,42,47,36,26,69,57,36,30.47,30.23,16,3,16,0.00
2013-1-20,69,58,50,48,35,25,63,44,28,30.23,30.05,23,4,23,0.00
2013-1-21,66,56,46,45,40,35,68,55,36,30.11,29.98,20,4,20,0.00
2013-1-22,56,50,43,39,29,25,58,45,35,30.29,30.05,20,6,20,0.00
2013-1-23,53,44,37,38,29,22,68,55,36,30.39,30.19,16,4,16,0.00
2013-1-24,67,52,37,47,36,24,65,55,34,30.47,30.11,30,10,30,0.00
2013-1-25,52,42,32,38,30,20,69,62,46,30.46,30.16,18,4,18,0.00
2013-1-26,59,49,42,46,35,28,66,60,46,30.33,30.13,16,3,16,0.00
2013-1-27,52,45,40,39,30,23,64,56,45,30.51,30.32,22,6,22,0.00
2013-1-28,62,52,44,48,31,23,61,45,34,30.47,30.29,12,2,12,0.00
2013-1-29,74,63,52,54,36,27,52,37,30,30.29,30.14,25,3,25,0.00
2013-1-30,73,69,61,47,38,32,40,33,31,30.14,29.66,46,15,46,0.17
2013-1-31,61,52,47,39,31,26,67,47,33,30.20,29.75,40,11,40,0.08
2013-2-1,58,50,41,35,28,18,64,44,23,30.37,30.17,31,8,31,0.00
2013-2-2,55,46,35,44,32,18,68,59,39,30.38,30.11,18,3,18,0.00
2013-2-3,62,52,45,38,35,33,68,53,36,30.11,29.93,31,8,31,0.00
2013-2-4,56,49,41,41,34,30,69,58,39,30.17,30.05,11,1,11,0.00
2013-2-5,68,55,46,52,37,24,66,50,39,30.09,29.97,23,5,23,0.00
2013-2-6,69,59,52,55,39,25,66,48,35,30.19,30.04,15,3,15,0.00
2013-2-7,60,57,54,33,30,27,39,36,33,30.18,29.72,20,4,20,1.50
2013-2-8,64,56,50,52,37,24,66,49,36,30.07,29.72,22,6,22,0.08
2013-2-9,62,52,45,42,35,27,67,53,33,30.35,30.07,16,4,16,0.00
2013-2-10,64,56,47,51,38,27,64,51,36,30.40,30.20,20,4,20,0.00
2013-2-11,66,63,60,36,34,31,37,34,32,30.24,30.08,28,6,28,0.82
2013-2-12,60,57,52,40,31,26,50,38,34,30.14,29.89,27,3,27,0.90
2013-2-13,73,60,50,59,36,25,66,41,29,29.91,29.71,33,8,33,0.38
2013-2-14,54,51,48,41,34,24,67,54,37,30.09,29.85,18,3,19,0.26
2013-2-15,57,51,44,45,33,20,67,51,36,30.12,29.98,14,2,14,0.26
2013-2-16,54,46,37,42,26,18,65,47,36,30.05,29.85,30,7,30,0.17
2013-2-17,48,39,31,28,20,12,67,49,28,30.33,30.05,29,8,29,0.32
2013-2-18,51,45,35,38,29,22,66,54,41,30.45,30.27,14,3,14,0.01
2013-2-19,64,55,46,51,32,25,65,43,32,30.28,29.99,35,6,35,0.19
2013-2-20,55,49,40,39,33,24,71,55,36,30.18,30.06,16,4,16,0.00
2013-2-21,57,51,45,45,37,28,68,59,43,30.20,30.10,15,3,15,0.00
2013-2-22,65,56,50,44,36,25,67,48,33,30.21,30.05,31,7,31,0.54
2013-2-23,62,46,46,35,10,-100,39,33,35,30.07,29.81,26,4,26,2.32
2013-2-24,67,56,49,53,34,25,66,44,33,30.02,29.78,16,4,16,0.13
2013-2-25,56,50,44,34,26,21,51,39,35,30.10,29.95,24,6,24,0.28
2013-2-26,71,62,50,43,35,25,38,36,32,29.97,29.60,47,14,47,0.60
2013-3-1,54,50,46,38,35,33,67,57,49,29.95,29.87,19,4,19,0.00
2013-3-2,51,45,38,36,33,25,68,63,48,29.95,29.85,26,8,26,0.00
2013-3-3,48,42,35,32,28,19,70,58,48,30.04,29.91,21,6,21,0.00
2013-3-4,58,44,32,38,27,20,69,53,29,30.19,30.03,18,5,18,0.00
2013-3-5,62,56,46,49,37,24,66,51,36,30.15,29.73,44,9,44,0.01
2013-3-6,59,49,42,42,31,25,65,52,34,30.09,29.72,43,13,43,0.00
2013-3-7,61,48,38,43,33,26,67,58,39,30.24,30.09,18,4,18,0.00
2013-3-8,59,47,41,36,32,27,66,56,32,30.29,30.19,21,5,21,0.00
2013-3-15,58,56,55,45,42,38,64,58,51,30.07,30.06,27,10,27,0.00
2013-3-16,75,63,56,55,46,37,63,55,39,30.06,29.89,29,10,29,0.00
2013-3-17,74,64,59,58,48,37,63,56,44,30.05,29.96,30,9,30,0.00
2013-3-18,67,62,59,48,35,30,59,37,33,30.10,29.88,29,5,29,0.02
2013-3-19,67,59,57,52,33,29,59,38,34,29.96,29.83,22,5,22,0.02
2013-3-22,51,50,50,40,38,36,66,64,57,30.07,30.03,13,3,13,0.00
2013-3-23,56,51,46,44,32,22,66,48,36,30.07,29.88,20,3,20,0.00
2013-3-24,67,55,48,38,29,24,38,37,34,29.89,29.47,27,7,27,0.73
2013-3-25,56,50,46,36,30,24,66,47,32,29.79,29.60,42,11,42,1.54
2013-3-26,50,10,47,33,-75,-100,54,9,44,30.19,30.02,28,9,28,0.04
2013-3-27,72,15,50,43,-65,-100,52,11,27,30.28,30.17,21,5,21,0.06
2013-3-28,61,51,41,40,31,27,66,49,29,30.31,30.18,21,4,21,0.00
2013-3-29,60,53,45,43,37,29,65,54,40,30.36,30.23,21,3,21,0.00
2013-3-30,70,60,54,51,42,33,64,51,35,30.26,30.09,30,6,30,0.00
2013-3-31,70,63,57,55,42,31,60,47,34,30.11,29.91,33,11,33,0.02
2013-4-1,76,67,62,61,45,32,62,46,32,29.96,29.86,22,6,22,0.01
2013-4-2,64,59,54,48,42,32,64,54,34,30.15,29.96,21,5,21,0.00
2013-4-3,68,58,54,54,39,27,63,49,34,30.25,30.07,23,6,23,0.00
2013-4-4,64,57,51,44,35,25,62,44,34,30.25,29.85,32,8,32,0.40
2013-4-5,59,52,45,45,31,21,59,45,37,30.04,29.87,20,6,20,0.14
2013-4-6,68,58,50,51,37,25,64,46,33,30.25,30.03,26,6,26,0.00
2013-4-7,69,63,56,56,38,28,63,41,33,30.27,30.16,18,4,18,0.00
2013-4-8,75,67,59,60,43,31,60,43,33,30.22,30.13,18,2,18,0.00
2013-4-9,80,70,63,64,46,34,62,44,31,30.24,30.14,21,4,21,0.00
2013-4-10,76,70,63,62,45,33,63,43,30,30.19,30.04,23,4,23,0.00
2013-4-11,76,71,67,44,39,36,34,31,29,30.04,29.86,30,6,30,0.00
2013-4-12,77,71,68,44,39,37,34,31,28,29.88,29.73,38,10,38,0.40
2013-4-13,73,65,57,56,48,33,67,56,31,30.03,29.84,15,4,15,0.00
2013-4-14,70,66,61,52,39,31,54,38,30,30.11,29.95,25,4,25,0.20
2013-4-15,72,67,64,57,40,34,58,37,30,30.17,29.90,18,3,18,0.74
2013-4-16,76,69,62,60,43,33,60,39,30,30.26,30.17,19,3,19,0.00
2013-4-17,76,70,62,62,43,35,61,40,28,30.25,30.16,16,2,16,0.01
2013-4-18,77,73,68,59,44,36,54,37,29,30.17,30.05,19,4,19,0.00
2013-4-19,78,72,68,70,48,-100,97,48,29,30.05,29.86,39,10,39,1.40
2013-4-20,69,57,52,68,49,42,97,76,54,30.25,29.94,23,6,23,0.38
2013-4-21,67,59,52,52,48,43,80,68,53,30.34,30.23,33,7,33,0.00
2013-4-22,70,58,49,51,46,37,78,65,50,30.30,30.12,24,8,24,0.00
2013-4-23,65,59,54,56,52,48,85,78,68,30.21,30.14,16,4,16,0.00
2013-4-24,75,66,57,63,57,50,94,75,46,30.20,30.08,25,4,25,0.00
2013-4-25,81,70,65,68,64,62,95,82,55,30.23,30.09,20,3,20,0.25
2013-4-26,72,65,60,63,53,-100,96,70,27,30.39,30.22,24,-2,24,0.00
2013-4-27,73,66,60,59,54,43,89,68,36,30.35,30.23,19,4,19,0.00
2013-4-28,64,64,64,58,57,57,79,78,77,30.23,30.23,7,1,7,0.00
2013-4-29,78,69,64,66,64,61,95,85,61,30.02,29.97,24,3,24,0.48
2013-4-30,75,68,65,66,64,60,98,86,68,30.10,29.97,19,3,19,0.02
2013-5-1,71,64,61,63,59,-100,93,84,65,30.18,30.07,20,1,20,0.00
2013-5-2,72,67,63,64,62,58,91,84,71,30.18,30.11,31,9,31,0.01
2013-5-3,68,64,60,62,59,52,95,83,67,30.11,30.01,34,9,34,0.07
2013-5-4,65,62,60,61,58,54,94,87,76,30.02,29.90,30,11,30,0.10
2013-5-5,70,66,63,65,63,61,98,90,77,29.91,29.80,31,9,31,0.68
2013-5-6,70,65,61,63,56,49,98,77,50,29.94,29.84,25,5,25,0.01
2013-5-7,69,62,57,60,55,50,90,77,63,29.99,29.91,26,3,26,0.07
2013-5-8,74,66,56,62,56,51,87,72,52,30.07,29.97,27,6,27,0.00
2013-5-9,82,72,64,64,62,58,91,71,45,30.11,30.02,23,6,23,0.00
2013-5-10,81,74,66,67,63,60,84,70,50,30.11,30.02,23,5,23,0.00
2013-5-11,80,75,71,69,66,59,94,77,49,30.04,29.89,24,7,24,0.00
2013-5-12,82,75,69,68,60,51,90,63,37,30.01,29.86,20,6,20,0.01
2013-5-13,74,66,59,51,42,37,62,43,28,30.15,29.99,22,5,22,0.00
2013-5-14,71,65,54,55,48,43,78,56,38,30.27,30.13,18,4,18,0.00
2013-5-15,81,71,63,61,58,52,83,64,43,30.19,30.03,27,7,27,0.00
2013-5-16,84,75,68,68,63,58,85,68,48,30.09,30.01,19,6,19,0.00
2013-5-17,84,75,68,70,66,61,94,75,51,30.13,30.05,20,5,20,0.00
2013-5-18,80,75,70,70,68,64,94,79,60,30.17,30.09,21,4,21,0.00
2013-5-19,78,75,70,71,69,64,89,82,74,30.15,30.07,18,4,18,0.00
2013-5-20,79,76,74,72,70,69,90,84,75,30.13,30.05,26,6,26,0.08
2013-5-21,77,73,66,73,70,64,96,90,75,30.12,30.01,23,2,23,0.71
2013-5-22,82,76,70,72,70,67,97,83,64,30.04,29.95,16,3,16,0.01
2013-5-23,82,76,72,74,71,70,95,84,69,29.98,29.86,23,4,23,0.01
2013-5-24,83,76,68,71,57,39,88,54,26,30.17,29.88,24,7,24,0.00
2013-5-25,77,67,57,57,45,31,72,48,20,30.31,30.16,23,5,23,0.00
2013-5-26,80,71,63,63,58,53,85,66,40,30.27,30.16,22,4,22,0.00
2013-5-27,80,74,68,66,63,61,90,70,55,30.26,30.18,16,2,16,0.00
2013-5-28,80,76,71,69,66,62,87,71,56,30.27,30.19,19,3,19,0.00
2013-5-29,80,76,72,68,66,64,82,73,61,30.28,30.17,16,4,16,0.00
2013-5-30,81,77,74,72,70,66,87,80,70,30.27,30.19,18,5,18,0.00
2013-5-31,82,78,74,73,71,70,90,81,69,30.25,30.16,20,4,20,0.00
2013-6-1,82,78,74,72,70,68,89,79,67,30.17,30.09,20,4,20,0.00
2013-6-2,83,78,75,74,72,70,89,82,70,30.12,29.96,24,6,24,0.00
2013-6-3,81,76,71,76,73,68,95,89,78,29.99,29.88,23,5,23,0.68
2013-6-4,84,78,74,77,74,71,97,91,75,30.05,29.92,16,3,16,0.37
2013-6-5,81,77,73,75,73,70,96,89,74,30.06,29.96,27,4,27,0.68
2013-6-6,79,75,71,75,72,68,98,91,77,30.00,29.71,21,4,21,1.57
2013-6-7,85,78,74,75,73,70,96,85,63,29.89,29.52,43,12,43,0.18
2013-6-8,85,80,76,76,74,72,92,82,69,30.12,29.88,21,7,21,0.00
2013-6-9,84,80,77,77,74,72,92,84,70,30.15,30.08,24,4,24,0.00
2013-6-10,84,79,70,76,74,68,96,86,76,30.13,29.99,36,9,36,0.45
2013-6-11,88,78,72,77,74,71,97,86,61,30.06,29.95,22,6,22,1.69
2013-6-12,93,84,77,79,75,70,96,77,49,30.02,29.93,19,4,19,0.00
2013-6-13,92,83,80,79,78,73,94,84,54,29.94,29.86,24,4,24,0.00
2013-6-14,87,82,78,67,62,54,68,53,33,29.94,29.80,18,3,18,0.00
2013-6-15,81,78,73,69,62,55,81,61,43,30.07,29.93,19,3,19,0.00
2013-6-16,83,78,73,69,65,61,78,64,52,30.11,30.01,18,3,18,0.00
2013-6-17,85,79,75,76,72,68,94,79,64,30.04,29.92,19,4,19,0.19
2013-6-18,87,79,71,77,74,70,97,85,65,29.95,29.80,23,6,26,21.41
2013-6-19,87,78,72,77,73,71,97,85,61,29.98,29.83,20,5,27,2.72
2013-6-20,80,76,73,73,71,67,96,84,71,30.09,29.95,19,4,26,0.21
2013-6-21,83,77,70,73,70,66,91,81,63,30.11,30.04,13,4,19,0.00
2013-6-22,85,78,72,74,72,70,94,83,61,30.11,30.03,11,1,13,0.00
2013-6-23,85,80,76,76,75,72,92,84,71,30.13,30.06,15,4,19,0.00
2013-6-24,86,81,77,76,74,72,91,80,66,30.16,30.08,12,4,19,0.00
2013-6-25,86,81,77,76,74,70,90,81,67,30.11,30.00,16,5,21,0.00
2013-6-26,88,79,72,77,73,67,96,84,61,30.02,29.90,16,4,24,0.77
2013-6-27,89,81,77,79,76,69,95,85,65,29.94,29.74,23,8,35,0.09
2013-6-28,88,83,78,79,76,71,89,80,71,29.78,29.61,28,9,33,0.00
2013-6-29,86,80,73,76,74,70,93,82,70,29.72,29.63,24,8,28,0.10
2013-6-30,83,78,74,77,74,70,95,88,74,29.80,29.66,20,6,30,0.94
2013-7-1,83,79,74,77,74,72,95,86,77,29.95,29.76,31,9,35,0.25
2013-7-2,82,79,75,76,74,71,92,84,76,30.09,29.94,22,7,27,0.05
2013-7-3,85,79,77,78,75,73,94,88,74,30.15,30.06,15,4,27,0.28
2013-7-4,85,81,78,77,76,73,89,83,74,30.17,30.11,19,7,26,0.04
2013-7-5,86,82,78,78,76,74,91,82,73,30.17,30.10,13,5,28,0.06
2013-7-6,85,81,78,76,74,71,89,81,67,30.16,30.07,18,5,24,0.06
2013-7-7,85,81,78,75,73,72,87,78,65,30.13,30.04,14,4,19,0.00
2013-7-8,85,80,76,75,73,71,87,78,64,30.13,30.06,15,3,19,0.00
2013-7-9,86,80,76,75,73,72,89,80,64,30.14,30.06,13,3,18,0.04
2013-7-10,85,82,79,74,73,71,84,75,63,29.96,29.92,11,4,18,0.00
2013-7-11,86,81,78,76,74,71,86,79,65,29.96,29.83,23,8,27,0.00
2013-7-12,81,77,74,76,74,71,97,91,81,29.90,29.81,12,2,24,1.33
2013-7-13,84,78,74,78,75,72,98,89,72,30.01,29.87,16,4,24,1.15
2013-7-14,85,81,75,77,75,72,94,83,72,30.15,30.00,33,9,33,0.36
2013-7-15,86,82,77,77,76,72,94,82,69,30.18,30.11,20,6,24,0.00
2013-7-16,86,82,76,76,75,72,95,80,64,30.20,30.14,13,2,18,0.00
2013-7-17,92,82,76,77,74,70,94,79,56,30.16,30.04,15,2,26,0.21
2013-7-18,86,80,74,77,73,71,92,80,66,30.10,30.01,14,2,18,0.00
2013-7-19,85,81,75,76,74,72,91,80,67,30.08,29.97,21,6,28,0.27
2013-7-20,84,80,77,76,74,72,92,83,69,30.03,29.94,29,7,32,0.26
2013-7-21,85,78,74,76,74,72,95,86,72,29.99,29.89,18,5,24,2.08
2013-7-22,88,80,76,77,74,72,93,81,60,29.96,29.86,35,7,35,0.00
2013-7-23,89,81,76,75,73,71,89,77,57,29.88,29.74,18,7,23,0.00
2013-7-24,84,80,75,77,74,71,90,83,71,29.78,29.70,11,3,16,0.14
2013-7-25,87,80,75,78,74,68,92,82,64,29.91,29.71,12,1,15,0.01
2013-7-26,85,80,75,77,75,72,92,84,75,30.00,29.90,14,5,19,0.00
2013-7-27,85,82,79,77,76,74,89,83,74,29.98,29.85,14,4,18,0.00
2013-7-28,86,81,78,77,75,73,89,82,67,29.96,29.85,12,2,14,0.00
2013-7-29,89,81,76,79,76,72,93,86,63,30.09,29.94,14,2,25,0.09
2013-7-30,86,80,76,78,76,73,93,86,70,30.11,30.04,14,2,16,0.09
2013-7-31,87,80,75,78,76,69,96,86,70,30.07,29.97,11,2,20,0.01
2013-8-1,83,81,79,76,75,74,88,83,75,29.92,29.87,13,6,20,0.29
2013-8-2,87,81,76,77,75,73,94,83,67,29.99,29.87,16,5,24,0.00
2013-8-3,87,83,79,78,76,75,92,81,69,29.98,29.87,12,3,16,0.01
2013-8-4,92,84,78,78,75,73,94,77,57,29.93,29.82,13,3,18,0.00
2013-8-5,85,82,79,75,70,64,85,69,52,29.99,29.89,18,6,21,0.00
2013-8-6,85,82,79,72,70,68,74,68,61,29.99,29.89,13,5,18,0.00
2013-8-7,86,82,78,73,71,69,79,70,62,30.01,29.94,13,4,18,0.00
2013-8-8,87,82,76,78,76,69,92,82,70,30.01,29.93,11,2,22,0.96
2013-8-9,88,83,79,77,76,73,89,79,63,30.06,29.95,15,5,21,0.00
2013-8-10,88,83,78,78,76,74,92,80,67,30.07,30.01,18,4,23,0.00
2013-8-11,94,85,79,79,77,71,94,77,49,30.08,29.99,18,6,24,0.00
2013-8-12,94,85,80,80,76,72,88,76,51,30.04,29.90,19,6,21,0.00
2013-8-13,93,85,78,79,77,74,90,78,56,29.92,29.78,25,8,31,0.01
2013-8-14,89,80,75,79,75,73,97,86,66,29.94,29.79,15,4,24,4.09
2013-8-15,75,69,65,73,68,64,97,95,92,30.02,29.89,13,3,18,2.29
2013-8-16,80,73,68,75,70,66,98,93,84,30.02,29.93,16,3,19,0.13
2013-8-17,81,75,72,74,72,71,98,92,78,30.09,29.94,10,1,14,0.04
2013-8-18,85,79,73,78,74,71,97,86,70,30.12,30.03,13,2,22,0.37
2013-8-19,87,81,77,79,76,74,95,85,66,30.08,29.97,13,2,18,0.49
2013-8-20,86,81,76,78,76,74,97,86,72,30.09,29.99,13,2,16,0.00
2013-8-21,87,82,77,78,76,74,97,83,66,30.14,30.05,14,2,18,0.00
2013-8-22,88,81,76,77,75,71,95,82,64,30.09,29.96,14,2,19,0.14
2013-8-23,90,82,76,75,74,71,91,77,55,29.99,29.89,20,2,21,0.00
2013-8-24,83,78,73,75,72,69,95,82,66,30.14,29.94,13,3,18,0.40
2013-8-25,83,76,69,69,67,62,92,75,51,30.22,30.13,18,4,22,0.00
2013-8-26,83,76,70,71,68,64,88,75,62,30.19,30.06,14,4,18,0.00
2013-8-27,82,77,70,71,67,63,94,73,55,30.08,29.95,12,2,15,0.00
2013-8-28,88,80,74,73,71,68,90,75,55,29.98,29.89,18,4,22,0.00
2013-8-29,92,81,75,80,74,71,92,79,53,29.91,29.80,13,5,25,0.28
2013-8-30,87,80,77,76,75,73,94,85,68,29.93,29.84,15,4,20,0.00
2013-8-31,89,80,74,77,75,73,97,85,61,29.92,29.83,14,2,16,0.00
2013-9-1,88,82,80,78,76,73,89,83,64,29.89,29.79,19,5,25,0.00
2013-9-2,90,82,74,79,76,70,93,83,64,29.88,29.78,20,8,25,1.16
2013-9-3,90,84,81,79,77,73,89,82,59,29.89,29.77,21,6,23,0.02
2013-9-4,89,84,80,78,76,70,88,80,57,30.01,29.88,11,6,20,0.03
2013-9-5,89,83,80,78,75,73,80,77,64,30.02,29.94,14,1,14,0.00
2013-9-6,89,84,76,77,70,63,80,65,42,30.03,29.94,12,2,14,0.00
2013-9-7,87,81,72,74,70,64,94,70,49,30.01,29.92,13,2,16,0.00
2013-9-8,85,81,73,72,70,68,91,71,59,29.94,29.84,13,4,18,0.00
2013-9-9,86,82,78,75,71,69,83,69,60,30.06,29.91,16,7,16,0.00
2013-9-10,86,82,75,74,71,68,88,70,56,30.14,30.05,16,7,21,0.00
2013-9-11,86,82,75,75,72,66,92,73,53,30.11,30.01,15,5,18,0.00
2013-9-12,87,82,75,72,71,66,90,70,51,30.03,29.82,11,2,16,0.00
2013-9-13,90,82,76,76,72,66,87,73,57,29.83,29.67,18,1,23,0.05
2013-9-14,84,78,69,74,71,63,88,78,71,29.99,29.72,13,3,23,0.18
2013-9-15,85,80,70,75,72,68,92,77,63,30.08,29.98,18,5,22,0.00
2013-9-16,87,83,78,77,74,72,91,77,63,30.06,29.95,12,4,15,0.00
2013-9-17,82,78,70,75,69,63,88,73,61,30.14,30.00,16,3,23,0.00
2013-9-18,78,74,64,64,59,52,80,60,42,30.15,30.06,14,3,20,0.00
2013-9-19,81,76,68,68,63,56,80,64,54,30.09,30.01,12,3,14,0.00
2013-9-20,84,78,74,69,66,64,82,68,56,30.03,29.89,12,2,15,0.00
2013-9-21,84,79,74,72,69,66,89,71,59,29.90,29.66,20,7,23,0.00
2013-9-22,79,76,70,71,68,66,94,77,70,29.80,29.63,11,4,16,0.00
2013-9-23,78,75,68,66,62,57,84,66,50,29.97,29.79,15,3,19,0.00
2013-9-24,77,74,70,64,63,60,74,67,63,29.98,29.84,15,4,21,0.00
2013-9-25,78,75,70,68,66,64,83,74,67,29.84,29.73,13,4,16,0.00
2013-9-26,76,73,65,68,66,63,95,80,75,29.88,29.72,15,3,20,0.01
2013-9-27,78,73,62,66,64,59,89,73,59,30.03,29.87,15,3,20,0.00
2013-9-28,76,72,61,65,62,57,86,71,64,30.07,30.00,15,4,18,0.00
2013-9-29,77,73,62,63,60,52,90,63,51,30.03,29.94,16,3,20,0.00
2013-9-30,76,72,62,59,58,55,81,61,52,30.00,29.92,10,2,13,0.00
2013-10-1,80,74,64,62,59,56,91,62,46,30.06,29.96,9,3,15,0.00
2013-10-2,84,76,65,66,62,59,87,64,47,30.08,30.00,10,3,14,0.00
2013-10-3,81,77,68,70,68,65,92,73,65,30.08,30.01,13,2,16,0.00
2013-10-4,84,78,70,73,71,67,96,80,58,30.07,30.00,11,2,13,0.00
2013-10-5,84,78,69,72,71,66,99,80,62,30.05,29.97,12,2,18,0.00
2013-10-6,83,79,74,76,73,72,96,83,73,29.99,29.85,16,3,19,0.00
2013-10-7,79,78,74,75,74,73,97,88,84,29.86,29.74,9,2,18,0.16
2013-10-8,78,70,63,74,66,58,92,88,85,29.98,29.77,22,5,28,0.00
2013-10-9,74,67,59,63,60,56,89,78,67,30.02,29.94,23,8,26,0.00
2013-10-10,77,71,58,62,60,50,89,69,53,29.98,29.88,19,6,22,0.00
2013-10-11,81,75,67,64,62,61,86,64,54,29.94,29.84,14,3,16,0.00
2013-10-12,80,76,68,68,65,62,91,71,60,29.98,29.86,7,0,12,0.00
2013-10-13,76,73,67,67,66,64,91,80,71,30.06,29.96,13,2,21,0.00
2013-10-14,75,72,69,68,66,65,89,82,78,30.05,29.97,14,4,19,0.01
2013-10-15,73,71,63,67,63,59,88,76,65,30.04,29.93,13,4,16,0.00
2013-10-16,74,71,65,66,63,61,93,77,72,29.97,29.89,11,1,13,0.00
2013-10-17,79,74,66,69,66,63,95,77,68,29.93,29.83,12,2,18,0.00
2013-10-18,83,77,73,73,70,67,97,79,68,29.92,29.83,11,2,14,0.00
2013-10-19,81,78,73,72,71,67,95,81,70,29.89,29.80,10,3,14,0.00
2013-10-20,76,71,64,72,64,58,86,79,68,29.99,29.83,12,3,15,0.00
2013-10-21,70,68,64,64,61,60,88,80,76,30.04,29.94,11,3,13,0.00
2013-10-22,68,68,65,62,60,56,81,76,67,29.95,29.78,6,0,8,0.00
2013-10-23,72,68,61,61,52,40,96,59,32,29.94,29.70,23,4,32,0.00
2013-10-24,69,62,49,46,41,35,64,47,37,30.13,29.94,13,3,16,0.00
2013-10-25,62,58,52,48,42,37,85,55,41,30.27,30.07,16,6,19,0.00
2013-10-26,66,59,44,50,42,35,75,55,47,30.26,30.07,11,3,15,0.00
2013-10-27,73,64,51,56,50,41,72,61,47,30.08,30.00,9,1,15,0.00
2013-10-28,76,68,60,60,57,55,87,68,53,30.18,30.05,8,1,10,0.00
2013-10-29,75,70,59,61,59,54,95,70,49,30.26,30.16,10,1,15,0.00
2013-10-30,77,70,59,63,61,56,98,73,49,30.25,30.12,10,1,15,0.00
2013-10-31,78,73,64,69,64,61,92,75,70,30.14,29.93,10,1,13,0.00
2013-11-1,78,75,74,71,69,67,91,82,74,29.93,29.69,23,6,33,0.00
2013-11-2,74,70,64,70,62,52,93,76,52,29.88,29.68,12,4,16,0.00
2013-11-3,69,65,55,54,46,39,61,51,38,30.21,29.87,15,3,20,0.00
2013-11-4,66,61,54,49,44,38,71,54,37,30.34,30.19,18,2,22,0.00
2013-11-5,64,59,45,59,53,42,95,81,65,30.35,30.24,14,4,21,0.01
2013-11-6,75,67,60,66,62,58,94,84,72,30.24,30.02,11,3,16,0.00
2013-11-7,76,71,64,67,65,58,97,81,68,30.03,29.87,10,1,14,0.00
2013-11-8,73,62,48,66,43,32,79,53,33,30.22,29.96,16,3,24,0.00
2013-11-9,64,60,48,52,44,34,72,58,40,30.27,30.15,9,1,13,0.00
2013-11-10,69,64,58,56,51,47,84,62,46,30.18,30.07,9,2,12,0.00
2013-11-11,67,63,51,53,50,40,72,63,54,30.21,30.08,11,3,16,0.00
2013-11-12,71,65,56,54,49,43,80,57,38,30.24,29.93,12,2,15,0.00
2013-11-13,68,52,36,46,30,19,60,43,31,30.43,30.24,16,4,28,0.00
2013-11-14,62,53,40,47,37,26,69,56,44,30.42,30.24,11,3,15,0.00
2013-11-15,66,61,56,60,54,47,92,80,69,30.24,30.08,10,1,12,0.00
2013-11-16,74,67,60,64,61,59,97,81,68,30.15,30.08,10,1,14,0.00
2013-11-17,74,69,60,70,66,60,97,89,79,30.11,29.93,7,0,10,0.03
2013-11-18,81,73,68,71,69,67,97,87,71,29.94,29.77,15,3,18,0.00
2013-11-19,75,63,52,69,48,34,83,59,37,30.10,29.84,16,3,22,0.00
2013-11-20,58,56,47,50,45,38,75,67,55,30.24,30.10,19,6,22,0.00
2013-11-21,70,63,58,62,55,49,82,76,70,30.30,30.22,12,8,14,0.00
2013-11-22,72,68,61,65,63,60,99,85,79,30.26,30.09,9,3,12,0.00
2013-11-23,71,68,63,66,65,62,98,88,82,30.09,29.93,14,4,19,0.00
2013-11-24,68,52,42,64,34,17,89,54,30,30.44,30.02,22,5,31,0.00
2013-11-25,49,45,34,40,30,11,75,56,37,30.44,30.16,16,6,24,0.00
2013-11-26,67,59,48,66,55,40,97,88,75,30.17,29.54,21,9,21,0.37
2013-11-27,67,55,45,66,52,41,97,90,81,30.13,29.45,28,12,35,0.01
2013-11-28,47,44,33,42,33,22,88,66,43,30.41,30.13,13,6,23,0.00
2013-11-29,58,50,39,42,36,30,72,58,48,30.44,30.37,11,1,15,0.00
2013-11-30,58,53,38,45,42,32,82,66,56,30.44,30.23,13,3,20,0.00
2013-12-1,60,57,48,55,50,37,86,77,65,30.23,29.93,8,1,12,0.00
2013-12-2,64,58,52,55,51,44,89,78,49,29.94,29.75,11,1,16,0.00
2013-12-3,66,58,51,56,52,47,92,80,63,29.92,29.81,10,1,13,0.00
2013-12-4,77,66,60,65,61,55,98,85,63,30.04,29.90,11,2,15,0.00
2013-12-5,75,67,60,67,64,59,100,91,73,30.11,30.02,19,3,21,0.01
2013-12-6,76,70,65,70,66,64,95,90,80,30.10,30.02,23,10,28,0.00
2013-12-7,78,64,50,70,61,48,96,91,75,30.26,30.03,16,6,25,0.14
2013-12-8,50,47,46,48,46,45,98,96,94,30.26,30.17,15,5,23,0.07
2013-12-9,73,57,46,67,56,45,100,96,79,30.19,29.99,10,1,12,0.00
2013-12-10,72,63,50,68,60,46,100,88,71,30.23,29.91,22,8,32,0.06
2013-12-11,55,49,42,46,39,34,90,70,48,30.36,30.22,13,3,18,0.00
2013-12-12,55,48,43,42,34,26,83,59,35,30.33,30.18,14,2,21,0.00
2013-12-13,56,49,40,44,36,27,79,62,38,30.34,30.16,10,2,12,0.00
2013-12-14,69,62,51,67,59,44,98,89,76,30.17,29.74,30,8,46,0.77
2013-12-15,66,57,46,64,52,42,97,84,69,30.06,29.72,20,7,24,0.05
2013-12-16,60,49,40,47,42,37,93,78,44,30.15,30.06,11,3,13,0.00
2013-12-17,66,54,45,48,40,36,89,62,33,30.16,30.02,16,7,21,0.00
2013-12-18,58,52,46,44,36,28,89,56,33,30.26,30.02,16,4,22,0.00
2013-12-19,63,53,43,54,45,38,94,76,51,30.29,30.17,7,1,8,0.00
2013-12-20,73,63,55,60,57,52,94,82,60,30.19,30.10,9,1,14,0.00
2013-12-21,76,68,61,68,64,59,98,90,78,30.11,30.02,12,3,20,0.00
2013-12-22,77,71,68,72,68,66,97,92,82,30.07,30.01,31,10,35,0.00
2013-12-23,73,67,59,70,66,58,99,95,87,30.06,29.98,28,9,31,0.26
2013-12-24,59,54,44,58,45,33,97,74,42,30.28,30.00,16,6,21,0.03
2013-12-25,51,43,34,37,32,25,74,66,56,30.39,30.25,20,5,21,0.00
2013-12-26,51,45,41,45,40,33,88,81,70,30.25,30.16,14,6,21,0.00
2013-12-27,58,50,43,40,36,33,79,61,39,30.33,30.22,11,4,16,0.00
2013-12-28,62,52,42,57,45,35,98,77,64,30.31,29.96,11,2,14,0.04
2013-12-29,74,65,54,68,61,50,99,86,61,29.98,29.73,29,9,44,0.40
2013-12-30,60,53,46,50,46,44,93,80,60,30.10,29.91,14,5,19,0.00
2013-12-31,56,53,50,48,45,40,84,74,60,30.30,30.08,16,4,19,0.00
2014-1-1,56,50,47,49,45,40,96,82,67,30.29,30.06,10,2,13,0.25
2014-1-2,54,50,48,53,49,48,98,98,96,30.07,29.76,7,1,9,0.72